Time;durP1;ratioP1;P1;durP2;ratioP2;P2;SDS_P1;SDS_P2;PMS_P1;PMS_P2;Temp;Humidity;BMP_temperature;BMP_pressure;BME280_temperature;BME280_humidity;BME280_pressure;Samples;Min_cycle;Max_cycle;Signal;HPM_P1;HPM_P2
2020/12/06 00:00:10;;;;;;;30.83;17.20;;;5.50;99.90;;;;;;5067631;28;20370;-52
2020/12/06 00:02:36;;;;;;;29.17;16.77;;;5.50;99.90;;;;;;5062250;28;20409;-51
2020/12/06 00:05:11;;;;;;;29.95;16.50;;;5.50;99.90;;;;;;5069389;28;20842;-54
2020/12/06 00:07:39;;;;;;;29.25;16.55;;;5.60;99.90;;;;;;5063263;28;20383;-53
2020/12/06 00:10:09;;;;;;;31.08;16.80;;;5.60;99.90;;;;;;5071184;28;20401;-55
2020/12/06 00:12:35;;;;;;;26.97;16.00;;;5.60;99.90;;;;;;5071317;28;20401;-51
2020/12/06 00:15:03;;;;;;;26.35;15.95;;;5.60;99.90;;;;;;5071584;28;20727;-55
2020/12/06 00:17:29;;;;;;;25.17;16.15;;;5.60;99.90;;;;;;5071135;28;20405;-54
2020/12/06 00:19:55;;;;;;;35.25;16.38;;;5.60;99.90;;;;;;5071316;28;20389;-53
2020/12/06 00:22:21;;;;;;;28.30;16.48;;;5.60;99.90;;;;;;5071772;28;20390;-52
2020/12/06 00:24:48;;;;;;;27.40;15.30;;;5.60;99.90;;;;;;5071598;28;20381;-52
2020/12/06 00:27:15;;;;;;;28.45;16.63;;;5.60;99.90;;;;;;5070040;28;20406;-54
2020/12/06 00:29:43;;;;;;;27.63;16.15;;;5.50;99.90;;;;;;5071147;28;20390;-54
2020/12/06 00:32:09;;;;;;;28.27;15.68;;;5.50;99.90;;;;;;5070622;28;20882;-52
2020/12/06 00:34:35;;;;;;;25.35;15.52;;;5.60;99.90;;;;;;5069391;28;20386;-53
2020/12/06 00:37:01;;;;;;;28.83;16.25;;;5.50;99.90;;;;;;5071187;28;20406;-53
2020/12/06 00:39:28;;;;;;;27.90;15.63;;;5.50;99.90;;;;;;5070663;28;20386;-51
2020/12/06 00:41:54;;;;;;;25.52;15.30;;;5.50;99.90;;;;;;5069902;28;20394;-54
2020/12/06 00:44:20;;;;;;;27.77;16.07;;;5.60;99.90;;;;;;5071302;28;20382;-54
2020/12/06 00:46:46;;;;;;;28.50;15.93;;;5.50;99.90;;;;;;5070873;28;20497;-53
2020/12/06 00:49:12;;;;;;;28.10;16.15;;;5.50;99.90;;;;;;5070368;28;20381;-54
2020/12/06 00:51:38;;;;;;;31.13;16.52;;;5.50;99.90;;;;;;5070323;28;20414;-53
2020/12/06 00:54:04;;;;;;;29.70;16.50;;;5.50;99.90;;;;;;5070436;28;20386;-52
2020/12/06 00:56:31;;;;;;;30.02;17.15;;;5.50;99.90;;;;;;5070427;28;20412;-53
2020/12/06 00:58:57;;;;;;;29.95;16.45;;;5.50;99.90;;;;;;5070791;28;20389;-51
2020/12/06 01:01:23;;;;;;;28.00;16.85;;;5.60;99.90;;;;;;5070736;28;20393;-54
2020/12/06 01:03:49;;;;;;;31.95;17.50;;;5.60;99.90;;;;;;5069868;28;20406;-52
2020/12/06 01:06:16;;;;;;;26.67;16.20;;;5.60;99.90;;;;;;5070342;28;20778;-54
2020/12/06 01:08:42;;;;;;;25.98;16.05;;;5.60;99.90;;;;;;5070366;28;20401;-55
2020/12/06 01:11:18;;;;;;;29.43;16.10;;;5.60;99.90;;;;;;5070427;28;20402;-51
2020/12/06 01:13:44;;;;;;;27.30;16.07;;;5.60;99.90;;;;;;5070955;28;20393;-52
2020/12/06 01:16:13;;;;;;;29.50;15.38;;;5.60;99.90;;;;;;5071293;28;20475;-55
2020/12/06 01:18:40;;;;;;;29.17;15.95;;;5.60;99.90;;;;;;5069192;28;20378;-55
2020/12/06 01:21:10;;;;;;;28.48;15.20;;;5.60;99.90;;;;;;5070643;28;20460;-54
2020/12/06 01:23:36;;;;;;;28.92;16.00;;;5.60;99.90;;;;;;5069481;28;20378;-55
2020/12/06 01:26:03;;;;;;;29.08;16.00;;;5.60;99.90;;;;;;5070527;28;20397;-54
2020/12/06 01:28:29;;;;;;;30.35;16.90;;;5.50;99.90;;;;;;5070446;28;20731;-54
2020/12/06 01:30:55;;;;;;;30.38;16.42;;;5.60;99.90;;;;;;5070401;28;20759;-54
2020/12/06 01:33:21;;;;;;;29.20;16.77;;;5.50;99.90;;;;;;5069509;28;20394;-54
2020/12/06 01:35:47;;;;;;;27.13;16.15;;;5.50;99.90;;;;;;5069313;28;20389;-54
2020/12/06 01:38:13;;;;;;;26.40;15.38;;;5.60;99.90;;;;;;5054018;28;20379;-53
2020/12/06 01:40:42;;;;;;;29.57;15.83;;;5.60;99.90;;;;;;5052026;28;20384;-54
2020/12/06 01:43:09;;;;;;;27.05;16.27;;;5.60;99.90;;;;;;5070474;28;20405;-54
2020/12/06 01:45:35;;;;;;;28.10;16.00;;;5.60;99.90;;;;;;5070205;28;20509;-54
2020/12/06 01:48:03;;;;;;;30.77;16.17;;;5.50;99.90;;;;;;5070243;28;20394;-52
2020/12/06 01:50:29;;;;;;;27.05;15.75;;;5.50;99.90;;;;;;5070530;28;20390;-55
2020/12/06 01:52:55;;;;;;;28.63;16.00;;;5.50;99.90;;;;;;5070229;28;20874;-54
2020/12/06 01:55:21;;;;;;;28.15;15.85;;;5.40;99.90;;;;;;5068957;28;21040;-54
2020/12/06 01:57:47;;;;;;;27.95;16.42;;;5.40;99.90;;;;;;5069412;28;20751;-54
2020/12/06 02:00:14;;;;;;;30.07;16.30;;;5.30;99.90;;;;;;5070906;28;20878;-53
2020/12/06 02:02:40;;;;;;;31.47;16.90;;;5.30;99.90;;;;;;5073317;28;20402;-53
2020/12/06 02:05:06;;;;;;;27.20;16.10;;;5.30;99.90;;;;;;5073224;28;20707;-52
2020/12/06 02:07:32;;;;;;;31.67;17.50;;;5.20;99.90;;;;;;5073822;28;20711;-55
2020/12/06 02:09:59;;;;;;;29.67;17.73;;;5.20;99.90;;;;;;5074063;28;20386;-51
2020/12/06 02:12:26;;;;;;;36.57;19.03;;;5.10;99.90;;;;;;5071907;28;20410;-51
2020/12/06 02:14:52;;;;;;;32.38;17.70;;;5.20;99.90;;;;;;5073538;28;20549;-55
2020/12/06 02:17:18;;;;;;;32.13;19.15;;;5.10;99.90;;;;;;5073375;28;20413;-55
2020/12/06 02:19:44;;;;;;;34.03;19.20;;;5.00;99.90;;;;;;5073790;28;20878;-54
2020/12/06 02:22:10;;;;;;;34.13;19.45;;;5.00;99.90;;;;;;5073867;28;20393;-54
2020/12/06 02:24:36;;;;;;;33.63;19.63;;;5.00;99.90;;;;;;5073104;28;20386;-53
2020/12/06 02:27:03;;;;;;;35.95;19.67;;;4.90;99.90;;;;;;5071851;28;20405;-51
2020/12/06 02:29:29;;;;;;;36.85;19.40;;;4.90;99.90;;;;;;5073489;28;20379;-52
2020/12/06 02:31:55;;;;;;;38.67;19.40;;;4.90;99.90;;;;;;5073622;28;20413;-52
2020/12/06 02:34:21;;;;;;;36.90;19.38;;;5.00;99.90;;;;;;5072611;28;20390;-54
2020/12/06 02:36:47;;;;;;;36.20;19.13;;;5.00;99.90;;;;;;5073193;28;20394;-51
2020/12/06 02:39:13;;;;;;;32.67;18.65;;;5.00;99.90;;;;;;5073362;28;20464;-51
2020/12/06 02:41:41;;;;;;;29.75;16.25;;;4.90;99.90;;;;;;5073095;28;20398;-52
2020/12/06 02:44:08;;;;;;;26.52;14.38;;;4.90;99.90;;;;;;5073244;28;20378;-54
2020/12/06 02:46:35;;;;;;;26.03;14.53;;;4.90;99.90;;;;;;5073617;28;20409;-52
2020/12/06 02:49:01;;;;;;;25.88;15.50;;;5.00;99.90;;;;;;5073198;28;20378;-54
2020/12/06 02:51:27;;;;;;;28.10;16.50;;;4.90;99.90;;;;;;5073163;28;20417;-54
2020/12/06 02:53:53;;;;;;;27.65;16.42;;;4.90;99.90;;;;;;5073113;28;20735;-53
2020/12/06 02:56:19;;;;;;;28.90;16.33;;;4.80;99.90;;;;;;5073060;28;20406;-54
2020/12/06 02:58:45;;;;;;;29.05;16.27;;;4.80;99.90;;;;;;5072789;28;20738;-54
2020/12/06 03:01:12;;;;;;;28.17;16.35;;;4.70;99.90;;;;;;5073173;28;20409;-54
2020/12/06 03:03:39;;;;;;;29.20;16.30;;;4.70;99.90;;;;;;5070055;28;20421;-54
2020/12/06 03:06:05;;;;;;;26.40;15.75;;;4.70;99.90;;;;;;5072353;28;20390;-53
2020/12/06 03:08:31;;;;;;;29.67;16.20;;;4.70;99.90;;;;;;5072925;28;20386;-50
2020/12/06 03:10:57;;;;;;;28.63;16.53;;;4.70;99.90;;;;;;5072135;28;20421;-52
2020/12/06 03:13:24;;;;;;;32.72;17.90;;;4.70;99.90;;;;;;5072074;28;20386;-52
2020/12/06 03:15:50;;;;;;;30.98;16.48;;;4.70;99.90;;;;;;5072460;28;20956;-54
2020/12/06 03:18:16;;;;;;;28.60;16.20;;;4.70;99.90;;;;;;5072013;28;20754;-53
2020/12/06 03:20:42;;;;;;;27.35;15.85;;;4.70;99.90;;;;;;5072487;28;20767;-54
2020/12/06 03:23:08;;;;;;;28.52;16.17;;;4.70;99.90;;;;;;5072422;28;20394;-55
2020/12/06 03:25:34;;;;;;;27.27;15.70;;;4.70;99.90;;;;;;5072498;28;20382;-52
2020/12/06 03:28:01;;;;;;;27.73;16.40;;;4.80;99.90;;;;;;5072296;28;20440;-55
2020/12/06 03:30:27;;;;;;;28.42;15.40;;;4.80;99.90;;;;;;5072349;28;20390;-53
2020/12/06 03:32:53;;;;;;;26.30;14.23;;;4.80;99.90;;;;;;5071282;28;20421;-52
2020/12/06 03:35:19;;;;;;;30.10;16.23;;;4.80;99.90;;;;;;5072138;28;20397;-52
2020/12/06 03:37:45;;;;;;;28.83;16.33;;;4.80;99.90;;;;;;5072293;28;20390;-52
2020/12/06 03:40:11;;;;;;;28.93;15.43;;;4.80;99.90;;;;;;5071105;28;20383;-51
2020/12/06 03:42:37;;;;;;;32.50;16.00;;;4.70;99.90;;;;;;5071883;28;20406;-54
2020/12/06 03:45:04;;;;;;;30.15;15.88;;;4.70;99.90;;;;;;5072003;28;20386;-52
2020/12/06 03:47:30;;;;;;;31.70;16.38;;;4.70;99.90;;;;;;5072099;28;20394;-51
2020/12/06 03:49:56;;;;;;;28.70;15.57;;;4.70;99.90;;;;;;5071924;28;20390;-52
2020/12/06 03:52:22;;;;;;;30.23;15.95;;;4.60;99.90;;;;;;5071867;28;20421;-51
2020/12/06 03:54:49;;;;;;;30.55;17.08;;;4.70;99.90;;;;;;5071737;28;20404;-51
2020/12/06 03:57:15;;;;;;;30.23;16.98;;;4.70;99.90;;;;;;5071838;28;20402;-50
2020/12/06 03:59:41;;;;;;;31.02;16.38;;;4.80;99.90;;;;;;5071733;28;20390;-53
2020/12/06 04:02:07;;;;;;;30.23;16.90;;;4.90;99.90;;;;;;5071266;28;20739;-53
2020/12/06 04:04:34;;;;;;;31.23;18.00;;;4.90;99.90;;;;;;5067456;28;20727;-52
2020/12/06 04:07:00;;;;;;;32.70;17.60;;;4.90;99.90;;;;;;5071419;28;20724;-54
2020/12/06 04:09:26;;;;;;;30.27;18.08;;;5.00;99.90;;;;;;5071535;28;20878;-55
2020/12/06 04:11:52;;;;;;;31.45;17.80;;;5.00;99.90;;;;;;5070702;28;20421;-52
2020/12/06 04:14:18;;;;;;;30.27;17.60;;;5.00;99.90;;;;;;5071697;28;20386;-55
2020/12/06 04:16:44;;;;;;;31.92;19.08;;;5.00;99.90;;;;;;5071118;28;20389;-55
2020/12/06 04:19:10;;;;;;;32.90;18.67;;;5.00;99.90;;;;;;5070346;28;20747;-52
2020/12/06 04:21:36;;;;;;;34.45;19.08;;;5.00;99.90;;;;;;5071660;28;20956;-54
2020/12/06 04:24:02;;;;;;;33.08;18.77;;;5.00;99.90;;;;;;5070990;28;20413;-52
2020/12/06 04:26:28;;;;;;;32.50;19.05;;;5.00;99.90;;;;;;5071471;28;20402;-53
2020/12/06 04:28:56;;;;;;;32.50;19.75;;;5.00;99.90;;;;;;5070768;28;20390;-52
2020/12/06 04:31:22;;;;;;;36.08;20.60;;;5.00;99.90;;;;;;5071137;28;20420;-55
2020/12/06 04:33:48;;;;;;;36.78;20.60;;;4.90;99.90;;;;;;5070389;28;20398;-51
2020/12/06 04:36:14;;;;;;;36.38;20.27;;;4.90;99.90;;;;;;5071250;28;20870;-52
2020/12/06 04:38:41;;;;;;;37.20;20.83;;;4.90;99.90;;;;;;5070844;28;20394;-55
2020/12/06 04:41:07;;;;;;;38.63;21.10;;;4.90;99.90;;;;;;5071230;28;20382;-52
2020/12/06 04:43:34;;;;;;;39.67;22.23;;;5.00;99.90;;;;;;5070775;28;20394;-53
2020/12/06 04:46:00;;;;;;;35.23;20.60;;;4.90;99.90;;;;;;5069566;28;20388;-53
2020/12/06 04:48:38;;;;;;;38.33;20.92;;;5.00;99.90;;;;;;5069743;28;20385;-53
2020/12/06 04:51:05;;;;;;;38.37;20.90;;;5.00;99.90;;;;;;5069862;28;20382;-51
2020/12/06 04:53:42;;;;;;;35.65;20.67;;;5.00;99.90;;;;;;5071446;28;20405;-52
2020/12/06 04:56:09;;;;;;;36.28;19.98;;;5.00;99.90;;;;;;5070976;28;20395;-53
2020/12/06 04:58:35;;;;;;;35.17;20.23;;;5.00;99.90;;;;;;5069357;28;20763;-55
2020/12/06 05:01:01;;;;;;;37.78;20.92;;;4.90;99.90;;;;;;5069478;28;20811;-53
2020/12/06 05:03:28;;;;;;;42.07;23.50;;;4.90;99.90;;;;;;5069827;28;20911;-53
2020/12/06 05:05:54;;;;;;;45.88;23.02;;;5.00;99.90;;;;;;5052341;28;20413;-53
2020/12/06 05:08:20;;;;;;;45.40;25.23;;;5.00;99.90;;;;;;5052786;28;20382;-51
2020/12/06 05:10:46;;;;;;;45.47;24.23;;;5.10;99.90;;;;;;5052372;28;20394;-51
2020/12/06 05:13:14;;;;;;;48.30;25.20;;;5.10;99.90;;;;;;5070836;28;20417;-51
2020/12/06 05:15:40;;;;;;;49.28;26.48;;;5.10;99.90;;;;;;5070902;28;20949;-53
2020/12/06 05:18:06;;;;;;;48.17;26.38;;;5.20;99.90;;;;;;5068866;28;20756;-51
2020/12/06 05:20:33;;;;;;;49.20;25.67;;;5.20;99.90;;;;;;5070860;28;20713;-52
2020/12/06 05:22:59;;;;;;;45.67;25.45;;;5.20;99.90;;;;;;5070670;28;20405;-52
2020/12/06 05:25:25;;;;;;;48.75;25.67;;;5.30;99.90;;;;;;5070780;28;20878;-54
2020/12/06 05:27:51;;;;;;;46.77;25.23;;;5.30;99.90;;;;;;5070145;28;20410;-53
2020/12/06 05:30:18;;;;;;;49.17;26.27;;;5.30;99.90;;;;;;5070571;28;20394;-52
2020/12/06 05:32:44;;;;;;;48.10;26.50;;;5.30;99.90;;;;;;5069505;28;20406;-54
2020/12/06 05:35:11;;;;;;;47.97;26.95;;;5.30;99.90;;;;;;5071085;28;20397;-52
2020/12/06 05:37:38;;;;;;;50.38;26.95;;;5.30;99.90;;;;;;5074509;28;20755;-55
2020/12/06 05:40:16;;;;;;;47.83;26.42;;;5.30;99.90;;;;;;5072717;28;20397;-52
2020/12/06 05:42:43;;;;;;;49.92;27.00;;;5.40;99.90;;;;;;5074425;28;20389;-53
2020/12/06 05:45:09;;;;;;;49.97;26.48;;;5.40;99.90;;;;;;5074421;28;20390;-53
2020/12/06 05:47:36;;;;;;;50.55;26.70;;;5.40;99.90;;;;;;5074015;28;20886;-55
2020/12/06 05:50:03;;;;;;;52.40;27.00;;;5.40;99.90;;;;;;5074185;28;20393;-53
2020/12/06 05:52:30;;;;;;;52.88;27.65;;;5.30;99.90;;;;;;5074220;28;20911;-52
2020/12/06 05:54:56;;;;;;;51.50;26.80;;;5.30;99.90;;;;;;5074377;28;20374;-55
2020/12/06 05:57:29;;;;;;;53.15;27.95;;;5.30;99.90;;;;;;5073539;28;20417;-55
2020/12/06 05:59:56;;;;;;;49.60;27.33;;;5.30;99.90;;;;;;5073567;28;20382;-53
2020/12/06 06:02:23;;;;;;;50.10;27.47;;;5.30;99.90;;;;;;5072601;28;20894;-51
2020/12/06 06:04:50;;;;;;;53.33;27.65;;;5.40;99.90;;;;;;5073051;28;20402;-53
2020/12/06 06:07:20;;;;;;;52.28;27.58;;;5.30;99.90;;;;;;5074335;28;20386;-54
2020/12/06 06:09:59;;;;;;;52.00;26.90;;;5.30;99.90;;;;;;5066065;28;20394;-55
2020/12/06 06:12:29;;;;;;;51.28;27.35;;;5.30;99.90;;;;;;5073455;28;20894;-55
2020/12/06 06:14:57;;;;;;;55.25;28.83;;;5.30;99.90;;;;;;5073465;28;20873;-55
2020/12/06 06:17:24;;;;;;;51.03;27.50;;;5.20;99.90;;;;;;5074008;28;20878;-51
2020/12/06 06:19:50;;;;;;;61.10;30.05;;;5.20;99.90;;;;;;5072232;28;20390;-55
2020/12/06 06:22:19;;;;;;;57.90;30.27;;;5.10;99.90;;;;;;5072993;28;20397;-53
2020/12/06 06:24:45;;;;;;;59.25;29.55;;;5.20;99.90;;;;;;5073207;28;20382;-54
2020/12/06 06:27:11;;;;;;;59.93;30.00;;;5.10;99.90;;;;;;5071762;28;20398;-52
2020/12/06 06:29:37;;;;;;;61.17;29.87;;;5.20;99.90;;;;;;5073293;28;20912;-54
2020/12/06 06:32:03;;;;;;;57.38;28.60;;;5.20;99.90;;;;;;5072342;28;20428;-54
2020/12/06 06:34:31;;;;;;;60.55;29.70;;;5.10;99.90;;;;;;5071090;28;20909;-51
2020/12/06 06:36:57;;;;;;;59.95;29.45;;;5.10;99.90;;;;;;5072988;28;20424;-55
2020/12/06 06:39:24;;;;;;;65.65;31.75;;;5.20;99.90;;;;;;5073126;28;20389;-52
2020/12/06 06:42:09;;;;;;;60.25;30.30;;;5.10;99.90;;;;;;5073106;28;20409;-53
2020/12/06 06:44:37;;;;;;;60.97;28.50;;;5.10;99.90;;;;;;5073323;28;20378;-54
2020/12/06 06:47:04;;;;;;;61.38;30.52;;;5.10;99.90;;;;;;5072251;28;20893;-52
2020/12/06 06:49:30;;;;;;;63.83;30.50;;;5.10;99.90;;;;;;5072357;28;20401;-56
2020/12/06 06:51:56;;;;;;;61.65;30.80;;;5.10;99.90;;;;;;5072431;28;20517;-52
2020/12/06 06:54:27;;;;;;;64.07;30.73;;;5.10;99.90;;;;;;5071686;28;20394;-52
2020/12/06 06:56:54;;;;;;;62.13;30.33;;;5.10;99.90;;;;;;5072724;28;20406;-55
2020/12/06 06:59:40;;;;;;;61.97;30.33;;;5.10;99.90;;;;;;5072882;28;20415;-54
2020/12/06 07:02:06;;;;;;;60.20;29.85;;;5.00;99.90;;;;;;5071855;28;20395;-52
2020/12/06 07:04:32;;;;;;;69.55;32.28;;;5.00;99.90;;;;;;5072412;28;20394;-52
2020/12/06 07:06:59;;;;;;;62.85;30.48;;;5.00;99.90;;;;;;5072637;28;20874;-52
2020/12/06 07:09:26;;;;;;;61.08;30.63;;;5.00;99.90;;;;;;5070946;28;20398;-55
2020/12/06 07:11:59;;;;;;;59.63;29.50;;;5.00;99.90;;;;;;5072243;28;20468;-55
2020/12/06 07:14:27;;;;;;;58.80;30.30;;;5.00;99.90;;;;;;5072387;28;20384;-53
2020/12/06 07:16:54;;;;;;;58.70;30.87;;;5.00;99.90;;;;;;5072599;28;20405;-54
2020/12/06 07:19:20;;;;;;;57.40;30.08;;;5.00;99.90;;;;;;5072260;28;20389;-52
2020/12/06 07:21:47;;;;;;;56.73;29.40;;;5.00;99.90;;;;;;5072509;28;20902;-53
2020/12/06 07:24:14;;;;;;;59.38;29.42;;;5.00;99.90;;;;;;5072126;28;20885;-53
2020/12/06 07:26:44;;;;;;;62.60;30.88;;;5.00;99.90;;;;;;5072838;28;20895;-54
2020/12/06 07:29:10;;;;;;;56.38;29.25;;;5.00;99.90;;;;;;5063050;28;20475;-54
2020/12/06 07:31:36;;;;;;;57.20;30.05;;;5.00;99.90;;;;;;5066641;28;20393;-52
2020/12/06 07:34:03;;;;;;;63.30;30.42;;;4.90;99.90;;;;;;5071353;28;20414;-52
2020/12/06 07:36:33;;;;;;;61.35;30.92;;;5.00;99.90;;;;;;5071529;28;20940;-55
2020/12/06 07:38:59;;;;;;;65.03;32.10;;;5.00;99.90;;;;;;5072197;28;20386;-55
2020/12/06 07:41:25;;;;;;;66.30;32.88;;;5.00;99.90;;;;;;5072192;28;20468;-55
2020/12/06 07:43:53;;;;;;;64.25;30.80;;;5.00;99.90;;;;;;5072745;28;20386;-52
2020/12/06 07:46:20;;;;;;;58.35;29.65;;;5.00;99.90;;;;;;5073120;28;20375;-55
2020/12/06 07:48:47;;;;;;;60.73;30.80;;;5.00;99.90;;;;;;5072610;28;20382;-55
2020/12/06 07:51:13;;;;;;;64.57;32.40;;;5.00;99.90;;;;;;5071173;28;20449;-54
2020/12/06 07:53:47;;;;;;;64.83;32.07;;;5.00;99.90;;;;;;5072516;28;20406;-52
2020/12/06 07:56:14;;;;;;;64.05;29.83;;;4.90;99.90;;;;;;5071454;28;20793;-55
2020/12/06 07:58:42;;;;;;;69.53;31.13;;;4.90;99.90;;;;;;5070281;28;20382;-52
2020/12/06 08:01:08;;;;;;;68.13;33.00;;;4.90;99.90;;;;;;5071142;28;20383;-52
2020/12/06 08:03:34;;;;;;;65.82;29.35;;;5.00;99.90;;;;;;5069605;28;20886;-52
2020/12/06 08:06:01;;;;;;;67.00;28.80;;;5.00;99.90;;;;;;5070391;28;20910;-54
2020/12/06 08:08:27;;;;;;;67.28;31.52;;;5.00;99.90;;;;;;5070833;28;20370;-53
2020/12/06 08:10:57;;;;;;;65.18;29.17;;;5.00;99.90;;;;;;5068588;28;20407;-54
2020/12/06 08:13:23;;;;;;;70.75;29.42;;;5.00;99.90;;;;;;5052118;28;20400;-52
2020/12/06 08:15:49;;;;;;;64.78;30.75;;;5.00;99.90;;;;;;5051106;28;20383;-55
2020/12/06 08:18:16;;;;;;;67.55;32.28;;;5.00;99.90;;;;;;5051800;28;20391;-52
2020/12/06 08:20:52;;;;;;;66.30;32.10;;;5.00;99.90;;;;;;5067062;28;20382;-53
2020/12/06 08:23:39;;;;;;;65.10;31.27;;;5.00;99.90;;;;;;5072000;28;20839;-54
2020/12/06 08:26:06;;;;;;;69.13;32.45;;;5.00;99.90;;;;;;5070634;28;20394;-55
2020/12/06 08:28:32;;;;;;;68.07;30.57;;;5.10;99.90;;;;;;5071776;28;20374;-53
2020/12/06 08:30:58;;;;;;;67.05;33.60;;;5.10;99.90;;;;;;5071648;28;20397;-55
2020/12/06 08:33:25;;;;;;;68.00;32.10;;;5.10;99.90;;;;;;5070762;28;20413;-52
2020/12/06 08:35:53;;;;;;;68.00;32.10;;;5.00;99.90;;;;;;5071415;28;20455;-52
2020/12/06 08:38:24;;;;;;;68.45;30.50;;;5.10;99.90;;;;;;5071500;28;20389;-55
2020/12/06 08:41:09;;;;;;;66.22;32.55;;;5.10;99.90;;;;;;5068918;28;20868;-52
2020/12/06 08:44:02;;;;;;;64.60;31.67;;;5.10;99.90;;;;;;5050635;28;20752;-54
2020/12/06 08:46:29;;;;;;;61.78;31.15;;;5.10;99.90;;;;;;5051709;28;20371;-51
2020/12/06 08:48:57;;;;;;;63.70;30.67;;;5.10;99.90;;;;;;5061316;28;20386;-55
2020/12/06 08:51:30;;;;;;;65.67;31.13;;;5.20;99.90;;;;;;5053513;28;20891;-52
2020/12/06 08:54:00;;;;;;;64.55;31.15;;;5.20;99.90;;;;;;5060286;28;20407;-55
2020/12/06 08:56:40;;;;;;;64.32;30.83;;;5.20;99.90;;;;;;5069203;28;20402;-53
2020/12/06 08:59:13;;;;;;;64.68;31.27;;;5.20;99.90;;;;;;5063223;28;20385;-53
2020/12/06 09:01:52;;;;;;;60.22;28.88;;;5.30;99.90;;;;;;5070454;28;20371;-55
2020/12/06 09:04:19;;;;;;;62.57;29.77;;;5.40;99.90;;;;;;5067898;28;20401;-52
2020/12/06 09:06:45;;;;;;;61.50;29.33;;;5.30;99.90;;;;;;5070151;28;20931;-52
2020/12/06 09:09:11;;;;;;;57.65;29.38;;;5.30;99.90;;;;;;5069989;28;20759;-55
2020/12/06 09:11:37;;;;;;;61.58;29.17;;;5.40;99.90;;;;;;5069903;28;20393;-62
2020/12/06 09:14:04;;;;;;;63.35;30.98;;;5.30;99.90;;;;;;5070473;28;20406;-55
2020/12/06 09:16:30;;;;;;;66.00;29.23;;;5.30;99.90;;;;;;5070976;28;20374;-56
2020/12/06 09:18:56;;;;;;;61.87;29.57;;;5.30;99.90;;;;;;5070212;28;20390;-56
2020/12/06 09:21:22;;;;;;;60.85;28.65;;;5.30;99.90;;;;;;5068552;28;20409;-54
2020/12/06 09:23:48;;;;;;;62.78;29.50;;;5.30;99.90;;;;;;5070927;28;20389;-54
2020/12/06 09:26:14;;;;;;;61.97;30.08;;;5.30;99.90;;;;;;5070652;28;20727;-54
2020/12/06 09:28:41;;;;;;;62.05;30.23;;;5.30;99.90;;;;;;5069894;28;20409;-56
2020/12/06 09:31:07;;;;;;;62.08;30.27;;;5.30;99.90;;;;;;5068950;28;20405;-55
2020/12/06 09:33:33;;;;;;;60.13;29.30;;;5.40;99.90;;;;;;5069349;28;20409;-55
2020/12/06 09:36:00;;;;;;;60.45;29.80;;;5.40;99.90;;;;;;5069615;28;20392;-55
2020/12/06 09:38:27;;;;;;;57.88;28.70;;;5.40;99.90;;;;;;5070327;28;20827;-55
2020/12/06 09:40:53;;;;;;;58.45;28.02;;;5.40;99.90;;;;;;5070269;28;20390;-55
2020/12/06 09:43:19;;;;;;;55.83;27.98;;;5.50;99.90;;;;;;5069791;28;20811;-55
2020/12/06 09:45:46;;;;;;;50.78;27.30;;;5.50;99.90;;;;;;5070357;28;20382;-52
2020/12/06 09:48:12;;;;;;;53.33;27.70;;;5.50;99.90;;;;;;5070319;28;20390;-55
2020/12/06 09:50:38;;;;;;;54.50;28.00;;;5.60;99.90;;;;;;5069775;28;20375;-56
2020/12/06 09:53:05;;;;;;;55.30;27.08;;;5.60;99.90;;;;;;5069449;28;20425;-55
2020/12/06 09:55:31;;;;;;;52.03;27.80;;;5.60;99.90;;;;;;5068711;28;20390;-55
2020/12/06 09:57:57;;;;;;;54.00;27.63;;;5.70;99.90;;;;;;5070661;28;20747;-54
2020/12/06 10:00:23;;;;;;;57.08;27.60;;;5.70;99.90;;;;;;5070037;28;20390;-55
2020/12/06 10:02:49;;;;;;;52.65;27.02;;;5.60;99.90;;;;;;5069257;28;20886;-52
2020/12/06 10:05:15;;;;;;;52.08;27.25;;;5.70;99.90;;;;;;5069632;28;20386;-55
2020/12/06 10:07:41;;;;;;;47.63;26.33;;;5.70;99.90;;;;;;5070331;28;20681;-55
2020/12/06 10:10:08;;;;;;;51.67;27.15;;;5.70;99.90;;;;;;5069974;28;20398;-55
2020/12/06 10:12:35;;;;;;;50.55;26.77;;;5.70;99.90;;;;;;5070253;28;20867;-53
2020/12/06 10:15:03;;;;;;;51.60;27.35;;;5.80;99.90;;;;;;5070095;28;20409;-55
2020/12/06 10:17:30;;;;;;;49.90;26.92;;;5.80;99.90;;;;;;5069596;28;20378;-55
2020/12/06 10:19:56;;;;;;;55.38;28.80;;;5.80;99.90;;;;;;5070287;28;20390;-54
2020/12/06 10:22:23;;;;;;;52.28;26.77;;;5.80;99.90;;;;;;5070382;28;20405;-56
2020/12/06 10:24:49;;;;;;;52.83;27.17;;;5.80;99.90;;;;;;5072762;28;20386;-54
2020/12/06 10:27:15;;;;;;;50.30;26.73;;;5.80;99.90;;;;;;5073742;28;20838;-55
2020/12/06 10:29:41;;;;;;;49.72;26.45;;;5.80;99.90;;;;;;5073600;28;20390;-54
2020/12/06 10:32:07;;;;;;;51.30;27.40;;;5.80;99.90;;;;;;5072428;28;20490;-55
2020/12/06 10:34:33;;;;;;;51.67;27.33;;;5.80;99.90;;;;;;5073609;28;20885;-56
2020/12/06 10:36:59;;;;;;;51.88;27.83;;;5.80;99.90;;;;;;5072607;28;20397;-54
2020/12/06 10:39:26;;;;;;;48.95;26.33;;;5.80;99.90;;;;;;5073720;28;20390;-55
2020/12/06 10:41:53;;;;;;;50.47;26.65;;;5.80;99.90;;;;;;5073351;28;20406;-54
2020/12/06 10:44:20;;;;;;;51.75;27.80;;;5.80;99.90;;;;;;5072904;28;20447;-55
2020/12/06 10:46:46;;;;;;;49.80;26.87;;;5.80;99.90;;;;;;5073518;28;20382;-54
2020/12/06 10:49:13;;;;;;;51.83;27.70;;;5.80;99.90;;;;;;5069920;28;20422;-55
2020/12/06 10:51:39;;;;;;;51.22;27.02;;;5.80;99.90;;;;;;5072971;28;20381;-55
2020/12/06 10:54:06;;;;;;;50.33;26.35;;;5.80;99.90;;;;;;5073008;28;20402;-55
2020/12/06 10:56:32;;;;;;;56.88;28.15;;;5.80;99.90;;;;;;5073036;28;20386;-52
2020/12/06 10:58:58;;;;;;;56.55;28.10;;;5.80;99.90;;;;;;5072548;28;20893;-53
2020/12/06 11:01:28;;;;;;;49.92;27.48;;;5.80;99.90;;;;;;5072819;28;20386;-52
2020/12/06 11:03:55;;;;;;;51.25;27.13;;;5.80;99.90;;;;;;5071545;28;20418;-55
2020/12/06 11:06:22;;;;;;;51.00;27.67;;;5.80;99.90;;;;;;5072625;28;20672;-55
2020/12/06 11:08:48;;;;;;;53.17;28.25;;;5.80;99.90;;;;;;5073481;28;20841;-53
2020/12/06 11:11:14;;;;;;;48.55;26.95;;;5.80;99.90;;;;;;5072311;28;20451;-53
2020/12/06 11:13:41;;;;;;;48.38;25.75;;;5.90;99.90;;;;;;5069827;28;20774;-55
2020/12/06 11:16:08;;;;;;;48.25;26.05;;;5.90;99.90;;;;;;5058786;28;20382;-55
2020/12/06 11:18:34;;;;;;;51.23;26.93;;;5.80;99.90;;;;;;5071791;28;20381;-55
2020/12/06 11:21:00;;;;;;;49.47;26.17;;;5.90;99.90;;;;;;5071952;28;20382;-54
2020/12/06 11:23:26;;;;;;;46.80;26.43;;;5.90;99.90;;;;;;5072699;28;20366;-56
2020/12/06 11:25:53;;;;;;;51.33;26.63;;;5.90;99.90;;;;;;5071444;28;20401;-56
2020/12/06 11:28:20;;;;;;;46.97;25.98;;;5.90;99.90;;;;;;5066619;28;20366;-56
2020/12/06 11:30:46;;;;;;;49.28;26.55;;;5.90;99.90;;;;;;5070980;28;20882;-53
2020/12/06 11:33:12;;;;;;;46.53;26.08;;;5.90;99.90;;;;;;5071191;28;20406;-55
2020/12/06 11:35:40;;;;;;;48.88;26.73;;;5.90;99.90;;;;;;5067761;28;20382;-54
2020/12/06 11:38:06;;;;;;;47.28;25.85;;;6.00;99.90;;;;;;5072453;28;20389;-55
2020/12/06 11:40:32;;;;;;;48.50;26.92;;;6.00;99.90;;;;;;5072221;28;20374;-54
2020/12/06 11:42:58;;;;;;;48.20;26.53;;;6.00;99.90;;;;;;5072326;28;20397;-52
2020/12/06 11:45:25;;;;;;;48.63;26.63;;;6.00;99.90;;;;;;5072023;28;20894;-62
2020/12/06 11:47:51;;;;;;;45.70;25.87;;;5.90;99.90;;;;;;5070491;28;20390;-50
2020/12/06 11:50:17;;;;;;;47.00;26.55;;;6.00;99.90;;;;;;5072307;28;20390;-53
2020/12/06 11:52:43;;;;;;;46.88;26.35;;;6.00;99.90;;;;;;5071580;28;20397;-50
2020/12/06 11:55:10;;;;;;;44.53;25.20;;;6.00;99.90;;;;;;5070909;28;20390;-53
2020/12/06 11:57:37;;;;;;;48.15;27.30;;;6.00;99.90;;;;;;5073104;28;20397;-50
2020/12/06 12:00:06;;;;;;;46.17;26.17;;;6.00;99.90;;;;;;5072099;28;20394;-50
2020/12/06 12:02:32;;;;;;;44.70;26.02;;;6.10;99.90;;;;;;5070827;28;20745;-51
2020/12/06 12:04:59;;;;;;;46.08;26.10;;;6.10;99.90;;;;;;5072140;28;20382;-48
2020/12/06 12:07:25;;;;;;;49.75;27.02;;;6.10;99.90;;;;;;5062590;28;20383;-56
2020/12/06 12:09:51;;;;;;;49.10;27.27;;;6.00;99.90;;;;;;5067990;28;20413;-49
2020/12/06 12:12:17;;;;;;;48.30;26.05;;;6.10;99.90;;;;;;5072268;28;20480;-48
2020/12/06 12:14:43;;;;;;;48.70;26.60;;;6.10;99.90;;;;;;5070633;28;20874;-48
2020/12/06 12:17:10;;;;;;;46.13;26.73;;;6.10;99.90;;;;;;5071498;28;20735;-53
2020/12/06 12:19:39;;;;;;;48.95;26.80;;;6.10;99.90;;;;;;5071962;28;20895;-50
2020/12/06 12:22:05;;;;;;;50.22;26.63;;;6.10;99.90;;;;;;5070678;28;20397;-60
2020/12/06 12:24:31;;;;;;;54.60;27.30;;;6.10;99.90;;;;;;5071974;28;20715;-61
2020/12/06 12:27:00;;;;;;;49.30;27.17;;;6.10;99.90;;;;;;5071874;28;20390;-53
2020/12/06 12:29:27;;;;;;;45.58;26.55;;;6.00;99.90;;;;;;5071731;28;20409;-55
2020/12/06 12:31:54;;;;;;;52.60;28.05;;;6.10;99.90;;;;;;5070360;28;20439;-52
2020/12/06 12:34:20;;;;;;;49.35;27.17;;;6.10;99.90;;;;;;5070400;28;20417;-52